Time;durP1;ratioP1;P1;durP2;ratioP2;P2;SDS_P1;SDS_P2;PMS_P1;PMS_P2;Temp;Humidity;BMP_temperature;BMP_pressure;BME280_temperature;BME280_humidity;BME280_pressure;Samples;Min_cycle;Max_cycle;Signal;HPM_P1;HPM_P2
2021/07/15 00:02:25;;;;;;;35.53;20.30;;;19.60;99.90;;;;;;6241906;23;20479;-81
2021/07/15 00:04:50;;;;;;;42.22;19.88;;;19.60;99.90;;;;;;6246491;23;20142;-82
2021/07/15 00:07:17;;;;;;;47.25;23.10;;;19.60;99.90;;;;;;6217800;23;20016;-81
2021/07/15 00:09:44;;;;;;;51.22;22.67;;;19.60;99.90;;;;;;6256075;22;20062;-81
2021/07/15 00:12:13;;;;;;;41.88;20.58;;;19.60;99.90;;;;;;6251715;22;20480;-81
2021/07/15 00:14:39;;;;;;;42.20;20.40;;;19.60;99.90;;;;;;6246191;22;20012;-81
2021/07/15 00:17:05;;;;;;;42.25;21.58;;;19.60;99.90;;;;;;6254298;23;20023;-80
2021/07/15 00:19:33;;;;;;;42.70;21.92;;;19.50;99.90;;;;;;6244838;23;20047;-81
2021/07/15 00:21:59;;;;;;;48.42;23.10;;;19.50;99.90;;;;;;6244304;23;20024;-81
2021/07/15 00:24:26;;;;;;;46.03;22.08;;;19.60;99.90;;;;;;6255880;22;20012;-81
2021/07/15 00:26:52;;;;;;;43.75;23.55;;;19.50;99.90;;;;;;6243826;23;20309;-81
2021/07/15 00:29:22;;;;;;;51.63;25.45;;;19.50;99.90;;;;;;6245419;22;20519;-81
2021/07/15 00:31:48;;;;;;;50.67;24.77;;;19.40;99.90;;;;;;6243570;23;20012;-81
2021/07/15 00:34:14;;;;;;;45.72;24.52;;;19.40;99.90;;;;;;6256092;22;20018;-80
2021/07/15 00:36:40;;;;;;;44.25;24.38;;;19.40;99.90;;;;;;6256337;23;20019;-81
2021/07/15 00:39:07;;;;;;;51.00;24.98;;;19.50;99.90;;;;;;6244439;23;20344;-81
2021/07/15 00:41:34;;;;;;;44.47;24.77;;;19.40;99.90;;;;;;6254469;22;20069;-80
2021/07/15 00:44:01;;;;;;;45.58;23.58;;;19.40;99.90;;;;;;6255909;22;20019;-81
2021/07/15 00:46:26;;;;;;;48.63;25.33;;;19.40;99.90;;;;;;6244910;22;20387;-81
2021/07/15 00:48:52;;;;;;;51.58;25.67;;;19.40;99.90;;;;;;6244586;23;20011;-81
2021/07/15 00:51:20;;;;;;;42.72;24.25;;;19.40;99.90;;;;;;6245611;23;20044;-80
2021/07/15 00:53:45;;;;;;;39.88;22.17;;;19.40;99.90;;;;;;6255756;22;20027;-81
2021/07/15 00:56:13;;;;;;;44.72;25.02;;;19.40;99.90;;;;;;6254686;23;20111;-81
2021/07/15 00:58:39;;;;;;;36.22;23.13;;;19.40;99.90;;;;;;6243508;23;20028;-81
2021/07/15 01:01:07;;;;;;;39.63;23.48;;;19.40;99.90;;;;;;6255564;22;20819;-81
2021/07/15 01:03:33;;;;;;;36.60;22.55;;;19.50;99.90;;;;;;6217880;23;20429;-81
2021/07/15 01:05:58;;;;;;;40.53;24.60;;;19.50;99.90;;;;;;6243827;23;20012;-81
2021/07/15 01:08:24;;;;;;;42.03;23.83;;;19.40;99.90;;;;;;6245061;23;20023;-81
2021/07/15 01:10:52;;;;;;;35.15;22.05;;;19.40;99.90;;;;;;6243775;23;20016;-81
2021/07/15 01:13:41;;;;;;;37.90;22.15;;;19.50;99.90;;;;;;6244550;23;20015;-81
2021/07/15 01:16:21;;;;;;;39.95;20.58;;;19.50;99.90;;;;;;6255302;23;20031;-81
2021/07/15 01:18:49;;;;;;;32.40;18.92;;;19.50;99.90;;;;;;6254762;22;20066;-81
2021/07/15 01:21:32;;;;;;;38.97;20.35;;;19.50;99.90;;;;;;6253644;23;20016;-81
2021/07/15 01:24:24;;;;;;;32.25;20.92;;;19.50;99.90;;;;;;6255536;23;20023;-81
2021/07/15 01:27:29;;;;;;;44.00;22.60;;;19.50;99.90;;;;;;6251864;23;20012;-81
2021/07/15 01:30:00;;;;;;;35.72;22.42;;;19.50;99.90;;;;;;6255057;23;20019;-81
2021/07/15 01:32:30;;;;;;;43.38;24.30;;;19.50;99.90;;;;;;6252629;23;20051;-81
2021/07/15 01:35:01;;;;;;;44.17;21.70;;;19.50;99.90;;;;;;6255104;22;20069;-81
2021/07/15 01:37:30;;;;;;;45.22;23.25;;;19.50;99.90;;;;;;6244855;22;20020;-81
2021/07/15 01:39:57;;;;;;;41.25;23.20;;;19.60;99.90;;;;;;6242801;23;20333;-81
2021/07/15 01:42:25;;;;;;;43.08;22.63;;;19.60;99.90;;;;;;6248458;23;20040;-81
2021/07/15 01:44:53;;;;;;;35.83;21.17;;;19.50;99.90;;;;;;6243169;23;20015;-81
2021/07/15 01:47:20;;;;;;;46.38;24.00;;;19.60;99.90;;;;;;6242663;23;20016;-81
2021/07/15 01:49:47;;;;;;;41.47;22.52;;;19.60;99.90;;;;;;6242982;23;20024;-81
2021/07/15 01:52:15;;;;;;;37.70;18.33;;;19.60;99.90;;;;;;6242880;23;20031;-81
2021/07/15 01:54:43;;;;;;;41.95;21.77;;;19.60;99.90;;;;;;6242992;23;20027;-81
2021/07/15 01:57:10;;;;;;;39.17;20.25;;;19.60;99.90;;;;;;6250881;22;20380;-81
2021/07/15 01:59:37;;;;;;;45.47;20.17;;;19.60;99.90;;;;;;6242839;23;20015;-81
2021/07/15 02:02:04;;;;;;;40.03;22.40;;;19.60;99.90;;;;;;6254656;22;20355;-81
2021/07/15 02:04:32;;;;;;;33.15;17.63;;;19.50;99.90;;;;;;6248939;22;20330;-82
2021/07/15 02:07:02;;;;;;;39.05;19.23;;;19.60;99.90;;;;;;6218067;23;20077;-81
2021/07/15 02:09:29;;;;;;;36.40;18.38;;;19.60;99.90;;;;;;6253884;23;20043;-81
2021/07/15 02:11:56;;;;;;;34.08;16.85;;;19.50;99.90;;;;;;6242746;23;20027;-81
2021/07/15 02:14:23;;;;;;;45.50;20.65;;;19.50;99.90;;;;;;6244433;22;20510;-81
2021/07/15 02:16:52;;;;;;;48.03;20.88;;;19.50;99.90;;;;;;6254181;22;20015;-81
2021/07/15 02:19:21;;;;;;;43.88;20.13;;;19.60;99.90;;;;;;6244769;22;20332;-81
2021/07/15 02:21:48;;;;;;;41.50;20.02;;;19.50;99.90;;;;;;6243008;23;20016;-81
2021/07/15 02:24:17;;;;;;;45.42;20.55;;;19.50;99.90;;;;;;6255313;22;20091;-81
2021/07/15 02:26:47;;;;;;;50.95;19.80;;;19.40;99.90;;;;;;6251043;23;20019;-81
2021/07/15 02:29:13;;;;;;;40.65;19.48;;;19.40;99.90;;;;;;6244125;22;20064;-81
2021/07/15 02:32:12;;;;;;;35.03;16.58;;;19.50;99.90;;;;;;6254031;23;20016;-81
2021/07/15 02:35:03;;;;;;;38.38;16.85;;;19.40;99.90;;;;;;6253843;23;20041;-81
2021/07/15 02:37:32;;;;;;;29.67;14.85;;;19.40;99.90;;;;;;6252887;23;20019;-80
2021/07/15 02:39:58;;;;;;;36.38;17.10;;;19.40;99.90;;;;;;6254361;22;20077;-81
2021/07/15 02:42:24;;;;;;;39.28;16.10;;;19.40;99.90;;;;;;6250306;22;20016;-81
2021/07/15 02:44:51;;;;;;;40.50;16.70;;;19.40;99.90;;;;;;6243386;23;20012;-82
2021/07/15 02:47:19;;;;;;;45.13;16.42;;;19.40;99.90;;;;;;6243384;23;20013;-81
2021/07/15 02:49:45;;;;;;;45.15;16.13;;;19.40;99.90;;;;;;6254838;23;20008;-81
2021/07/15 02:52:12;;;;;;;40.83;15.10;;;19.40;99.90;;;;;;6252811;23;20071;-81
2021/07/15 02:54:39;;;;;;;40.75;14.75;;;19.40;99.90;;;;;;6254944;22;20411;-80
2021/07/15 02:57:20;;;;;;;40.78;15.65;;;19.40;99.90;;;;;;6249527;23;20028;-81
2021/07/15 02:59:55;;;;;;;36.33;15.02;;;19.30;99.90;;;;;;6253186;23;20383;-81
2021/07/15 03:02:24;;;;;;;34.47;14.13;;;19.30;99.90;;;;;;6252362;23;20008;-80
2021/07/15 03:05:00;;;;;;;47.95;15.65;;;19.30;99.90;;;;;;6246516;23;20024;-81
2021/07/15 03:07:32;;;;;;;36.65;12.05;;;19.30;99.90;;;;;;6242645;23;20329;-81
2021/07/15 03:09:59;;;;;;;36.55;14.85;;;19.40;99.90;;;;;;6244710;22;20012;-81
2021/07/15 03:12:30;;;;;;;34.33;13.80;;;19.30;99.90;;;;;;6242406;23;20057;-81
2021/07/15 03:14:56;;;;;;;42.40;15.88;;;19.30;99.90;;;;;;6242943;23;20015;-80
2021/07/15 03:17:33;;;;;;;44.53;16.00;;;19.30;99.90;;;;;;6253224;23;20099;-80
2021/07/15 03:20:04;;;;;;;42.95;16.13;;;19.20;99.90;;;;;;6244146;22;20432;-81
2021/07/15 03:22:33;;;;;;;35.90;14.65;;;19.30;99.90;;;;;;6254082;22;20012;-81
2021/07/15 03:25:02;;;;;;;44.50;16.08;;;19.20;99.90;;;;;;6254262;22;20031;-80
2021/07/15 03:27:30;;;;;;;45.25;15.98;;;19.10;99.90;;;;;;6241433;23;20034;-81
2021/07/15 03:29:58;;;;;;;36.13;14.05;;;19.10;99.90;;;;;;6242388;23;20043;-81
2021/07/15 03:32:26;;;;;;;46.55;15.65;;;19.10;99.90;;;;;;6253740;22;20024;-80
2021/07/15 03:34:53;;;;;;;43.97;15.30;;;19.10;99.90;;;;;;6254225;22;20008;-82
2021/07/15 03:37:19;;;;;;;36.58;12.65;;;19.20;99.90;;;;;;6216963;23;20009;-81
2021/07/15 03:39:48;;;;;;;45.40;14.80;;;19.10;99.90;;;;;;6254131;22;20329;-80
2021/07/15 03:42:15;;;;;;;38.63;13.95;;;19.10;99.90;;;;;;6243633;23;20389;-81
2021/07/15 03:44:42;;;;;;;40.20;14.63;;;19.00;99.90;;;;;;6255459;22;20008;-82
2021/07/15 03:47:12;;;;;;;38.72;13.23;;;19.00;99.90;;;;;;6253154;23;20027;-82
2021/07/15 03:49:42;;;;;;;31.20;12.30;;;19.00;99.90;;;;;;6242946;23;20023;-82
2021/07/15 03:52:32;;;;;;;40.58;14.98;;;19.10;99.90;;;;;;6244473;22;20012;-82
2021/07/15 03:55:18;;;;;;;40.65;13.95;;;19.00;99.90;;;;;;6244915;22;20061;-82
2021/07/15 03:57:55;;;;;;;36.33;14.93;;;19.00;99.90;;;;;;6242276;23;20024;-82
2021/07/15 04:00:28;;;;;;;38.58;15.15;;;19.00;99.90;;;;;;6245940;22;20008;-80
2021/07/15 04:03:06;;;;;;;30.50;13.02;;;19.00;99.90;;;;;;6243326;23;20039;-81
2021/07/15 04:05:39;;;;;;;40.58;14.85;;;19.00;99.90;;;;;;6243660;23;20047;-82
2021/07/15 04:08:08;;;;;;;46.33;15.85;;;19.00;99.90;;;;;;6244883;22;20031;-82
2021/07/15 04:10:38;;;;;;;33.17;13.93;;;18.90;99.90;;;;;;6218452;23;20411;-82
2021/07/15 04:13:47;;;;;;;30.05;12.60;;;19.10;99.90;;;;;;6246804;23;20016;-81
2021/07/15 04:16:44;;;;;;;39.55;15.65;;;19.10;99.90;;;;;;6243883;23;20015;-82
2021/07/15 04:19:19;;;;;;;30.15;13.70;;;19.00;99.90;;;;;;6246131;22;20012;-81
2021/07/15 04:21:58;;;;;;;43.60;15.77;;;19.00;99.90;;;;;;6244392;23;20012;-81
2021/07/15 04:24:47;;;;;;;38.72;15.32;;;19.00;99.90;;;;;;6254976;23;20016;-81
2021/07/15 04:27:32;;;;;;;39.10;15.02;;;19.00;99.90;;;;;;6265661;23;20012;-82
2021/07/15 04:30:19;;;;;;;34.50;14.77;;;18.90;99.90;;;;;;6268528;22;20016;-80
2021/07/15 04:33:17;;;;;;;45.50;15.45;;;18.90;99.90;;;;;;6265119;23;20012;-82
2021/07/15 04:35:57;;;;;;;33.20;14.73;;;19.00;99.90;;;;;;6244519;23;20417;-81
2021/07/15 04:38:24;;;;;;;37.95;14.55;;;19.00;99.90;;;;;;6256140;22;20020;-81
2021/07/15 04:40:51;;;;;;;37.65;13.93;;;19.00;99.90;;;;;;6244317;23;20031;-81
2021/07/15 04:43:18;;;;;;;40.45;13.80;;;19.00;99.90;;;;;;6246678;23;20371;-82
2021/07/15 04:45:44;;;;;;;28.40;11.35;;;19.00;99.90;;;;;;6242957;23;20317;-82
2021/07/15 04:48:11;;;;;;;35.47;14.38;;;18.90;99.90;;;;;;6244895;22;20019;-82
2021/07/15 04:50:37;;;;;;;37.20;13.60;;;19.00;99.90;;;;;;6255606;22;20040;-82
2021/07/15 04:53:09;;;;;;;34.65;13.15;;;18.90;99.90;;;;;;6245173;22;20347;-83
2021/07/15 04:55:36;;;;;;;31.40;12.95;;;19.00;99.90;;;;;;6253194;23;20008;-82
2021/07/15 04:58:03;;;;;;;40.30;15.93;;;18.90;99.90;;;;;;6247209;23;20020;-82
2021/07/15 05:00:29;;;;;;;36.38;13.85;;;18.90;99.90;;;;;;6244614;22;20022;-82
2021/07/15 05:03:07;;;;;;;43.75;14.85;;;18.90;99.90;;;;;;6244711;22;20019;-82
2021/07/15 05:05:33;;;;;;;29.88;12.70;;;18.90;99.90;;;;;;6244261;23;20467;-82
2021/07/15 05:07:59;;;;;;;35.90;12.63;;;18.90;99.90;;;;;;6255590;23;20038;-82
2021/07/15 05:10:25;;;;;;;31.55;12.95;;;18.90;99.90;;;;;;6243851;23;20130;-82
2021/07/15 05:12:51;;;;;;;39.45;13.65;;;18.90;99.90;;;;;;6243340;23;20037;-81
2021/07/15 05:15:16;;;;;;;38.80;11.23;;;18.90;99.90;;;;;;6254067;23;20008;-81
2021/07/15 05:17:42;;;;;;;30.92;11.98;;;18.90;99.90;;;;;;6252807;23;20425;-81
2021/07/15 05:20:09;;;;;;;22.27;10.00;;;19.00;99.90;;;;;;6243817;23;20070;-82
2021/07/15 05:22:36;;;;;;;26.85;10.38;;;18.90;99.90;;;;;;6218342;23;20089;-79
2021/07/15 05:25:04;;;;;;;32.47;11.98;;;18.90;99.90;;;;;;6245242;22;20020;-81
2021/07/15 05:27:31;;;;;;;37.85;14.32;;;18.90;99.90;;;;;;6243705;23;20154;-81
2021/07/15 05:29:56;;;;;;;29.63;12.07;;;18.90;99.90;;;;;;6243887;23;20069;-78
2021/07/15 05:32:22;;;;;;;38.10;11.50;;;18.90;99.90;;;;;;6243504;23;20059;-81
2021/07/15 05:34:48;;;;;;;38.05;12.45;;;18.90;99.90;;;;;;6244309;23;20016;-82
2021/07/15 05:37:14;;;;;;;30.40;10.60;;;18.90;99.90;;;;;;6254548;23;20012;-80
2021/07/15 05:39:43;;;;;;;29.60;10.93;;;18.90;99.90;;;;;;6220354;23;20030;-82
2021/07/15 05:42:11;;;;;;;40.63;12.98;;;18.90;99.90;;;;;;6245364;23;20020;-80
2021/07/15 05:44:37;;;;;;;33.10;12.05;;;18.90;99.90;;;;;;6257593;22;20012;-80
2021/07/15 05:47:03;;;;;;;44.22;12.98;;;18.90;99.90;;;;;;6256318;22;20008;-83
2021/07/15 05:49:29;;;;;;;29.38;10.93;;;19.00;99.90;;;;;;6254713;23;20023;-82
2021/07/15 05:51:55;;;;;;;35.03;11.70;;;19.00;99.90;;;;;;6243265;23;20008;-81
2021/07/15 05:54:21;;;;;;;32.80;11.27;;;19.00;99.90;;;;;;6253562;23;20291;-80
2021/07/15 05:56:46;;;;;;;30.70;10.52;;;19.00;99.90;;;;;;6253496;23;20417;-81
2021/07/15 05:59:12;;;;;;;32.58;11.32;;;18.90;99.90;;;;;;6243433;23;20099;-81
2021/07/15 06:01:38;;;;;;;25.73;10.85;;;18.90;99.90;;;;;;6253264;23;20503;-82
2021/07/15 06:04:04;;;;;;;38.08;12.07;;;18.90;99.90;;;;;;6217703;23;20038;-82
2021/07/15 06:06:29;;;;;;;28.10;10.82;;;18.90;99.90;;;;;;6243639;23;20012;-81
2021/07/15 06:08:55;;;;;;;31.52;11.23;;;18.90;99.90;;;;;;6254652;23;20020;-81
2021/07/15 06:11:21;;;;;;;36.42;11.30;;;19.00;99.90;;;;;;6242905;23;20016;-81
2021/07/15 06:13:47;;;;;;;35.28;11.77;;;19.00;99.90;;;;;;6243141;23;20008;-82
2021/07/15 06:16:16;;;;;;;39.22;11.68;;;19.00;99.90;;;;;;6253659;23;20031;-82
2021/07/15 06:18:41;;;;;;;34.58;11.25;;;19.00;99.90;;;;;;6252970;23;20016;-82
2021/07/15 06:21:07;;;;;;;36.35;10.90;;;19.00;99.90;;;;;;6254725;23;20424;-82
2021/07/15 06:23:33;;;;;;;35.78;11.00;;;19.00;99.90;;;;;;6217826;23;20284;-81
2021/07/15 06:26:00;;;;;;;43.33;11.90;;;19.00;99.90;;;;;;6242708;23;20018;-81
2021/07/15 06:28:27;;;;;;;40.72;10.85;;;18.90;99.90;;;;;;6253087;23;20016;-83
2021/07/15 06:30:53;;;;;;;37.17;10.35;;;19.00;99.90;;;;;;6217895;23;20012;-79
2021/07/15 06:33:21;;;;;;;28.02;9.82;;;19.00;99.90;;;;;;6252625;23;20083;-81
2021/07/15 06:35:50;;;;;;;31.00;10.38;;;18.90;99.90;;;;;;6218586;23;20066;-81
2021/07/15 06:38:17;;;;;;;30.15;8.95;;;18.90;99.90;;;;;;6217716;23;20012;-82
2021/07/15 06:40:47;;;;;;;35.80;9.85;;;18.90;99.90;;;;;;6255348;22;20087;-82
2021/07/15 06:43:13;;;;;;;35.95;9.75;;;18.90;99.90;;;;;;6216959;23;20028;-81
2021/07/15 06:45:39;;;;;;;31.25;9.70;;;18.90;99.90;;;;;;6253331;23;20089;-82
2021/07/15 06:48:04;;;;;;;27.30;8.57;;;18.90;99.90;;;;;;6242378;23;20062;-81
2021/07/15 06:50:30;;;;;;;33.30;9.85;;;18.90;99.90;;;;;;6242834;23;20447;-82
2021/07/15 06:52:56;;;;;;;36.50;10.00;;;18.90;99.90;;;;;;6217319;23;20016;-83
2021/07/15 06:55:22;;;;;;;35.08;9.63;;;18.80;99.90;;;;;;6244567;22;20154;-82
2021/07/15 06:57:48;;;;;;;36.85;9.57;;;18.90;99.90;;;;;;6244186;23;20008;-82
2021/07/15 07:00:16;;;;;;;30.10;7.55;;;18.80;99.90;;;;;;6243456;23;20054;-80
2021/07/15 07:02:44;;;;;;;30.70;8.65;;;18.80;99.90;;;;;;6253883;22;20062;-80
2021/07/15 07:05:11;;;;;;;29.58;8.70;;;18.80;99.90;;;;;;6242102;23;20047;-82
2021/07/15 07:07:38;;;;;;;27.08;8.05;;;18.80;99.90;;;;;;6253980;23;20016;-83
2021/07/15 07:10:06;;;;;;;32.42;8.48;;;18.80;99.90;;;;;;6243752;23;20039;-82
2021/07/15 07:12:32;;;;;;;33.22;9.75;;;18.80;99.90;;;;;;6243580;23;20441;-82
2021/07/15 07:15:01;;;;;;;34.03;9.50;;;18.80;99.90;;;;;;6242167;23;20016;-83
2021/07/15 07:17:27;;;;;;;28.67;7.65;;;18.80;99.90;;;;;;6241497;23;20092;-82
2021/07/15 07:19:53;;;;;;;31.25;9.07;;;18.90;99.90;;;;;;6254891;23;20077;-82
2021/07/15 07:22:18;;;;;;;36.42;9.52;;;18.80;99.90;;;;;;6254173;23;20436;-81
2021/07/15 07:24:44;;;;;;;30.33;8.93;;;18.90;99.90;;;;;;6254286;23;20012;-81
2021/07/15 07:27:10;;;;;;;22.63;7.40;;;18.80;99.90;;;;;;6244246;22;20341;-82
2021/07/15 07:29:36;;;;;;;41.88;10.38;;;18.70;99.90;;;;;;6254621;23;20451;-81
2021/07/15 07:32:03;;;;;;;35.47;10.63;;;18.70;99.90;;;;;;6254339;23;20503;-81
2021/07/15 07:34:28;;;;;;;38.75;10.63;;;18.60;99.90;;;;;;6242237;23;20336;-81
2021/07/15 07:36:54;;;;;;;33.65;8.85;;;18.60;99.90;;;;;;6217756;23;20012;-81
2021/07/15 07:39:21;;;;;;;28.45;9.88;;;18.50;99.90;;;;;;6217146;23;20016;-81
2021/07/15 07:41:46;;;;;;;29.45;8.77;;;18.60;99.90;;;;;;6242475;23;20043;-80
2021/07/15 07:44:15;;;;;;;43.15;11.75;;;18.50;99.90;;;;;;6216831;23;20034;-81
2021/07/15 07:46:41;;;;;;;39.38;10.77;;;18.50;99.90;;;;;;6244601;22;20015;-80
2021/07/15 07:49:07;;;;;;;36.08;11.30;;;18.60;99.90;;;;;;6254756;22;20019;-80
2021/07/15 07:51:33;;;;;;;35.72;9.95;;;18.50;99.90;;;;;;6253990;22;20008;-81
2021/07/15 07:53:59;;;;;;;36.33;10.15;;;18.50;99.90;;;;;;6243861;23;20032;-81
2021/07/15 07:56:26;;;;;;;34.92;10.18;;;18.50;99.90;;;;;;6255242;22;20480;-82
2021/07/15 07:58:52;;;;;;;42.78;10.80;;;18.60;99.90;;;;;;6243141;23;20344;-81
2021/07/15 08:01:18;;;;;;;40.17;11.93;;;18.50;99.90;;;;;;6242215;23;20024;-81
2021/07/15 08:03:44;;;;;;;39.60;10.52;;;18.50;99.90;;;;;;6242595;23;20046;-82
2021/07/15 08:06:10;;;;;;;37.17;11.07;;;18.50;99.90;;;;;;6252247;23;20016;-82
2021/07/15 08:08:38;;;;;;;39.53;11.30;;;18.60;99.90;;;;;;6242950;23;20074;-84
2021/07/15 08:11:08;;;;;;;23.50;9.35;;;18.50;99.90;;;;;;6252912;23;20393;-82
2021/07/15 08:13:34;;;;;;;33.55;11.15;;;18.60;99.90;;;;;;6243714;23;20008;-81
2021/07/15 08:15:59;;;;;;;38.08;11.15;;;18.60;99.90;;;;;;6255481;23;20394;-82
2021/07/15 08:18:25;;;;;;;31.92;9.68;;;18.60;99.90;;;;;;6217149;23;20099;-82
2021/07/15 08:20:52;;;;;;;34.42;10.57;;;18.70;99.90;;;;;;6217613;23;20012;-82
2021/07/15 08:23:17;;;;;;;34.63;11.23;;;18.60;99.90;;;;;;6254559;22;20012;-82
2021/07/15 08:25:43;;;;;;;33.90;10.88;;;18.80;99.90;;;;;;6243630;23;20047;-81
2021/07/15 08:28:09;;;;;;;31.52;10.00;;;18.70;99.90;;;;;;6251822;23;20009;-81
2021/07/15 08:30:35;;;;;;;30.83;9.75;;;18.60;99.90;;;;;;6245257;23;20043;-81
2021/07/15 08:33:03;;;;;;;29.83;8.77;;;18.60;99.90;;;;;;6244283;23;20153;-81
2021/07/15 08:35:31;;;;;;;30.17;9.43;;;18.60;99.90;;;;;;6255101;23;20008;-82
2021/07/15 08:37:57;;;;;;;33.38;9.52;;;18.60;99.90;;;;;;6244616;23;20022;-81
2021/07/15 08:40:23;;;;;;;26.17;8.77;;;18.60;99.90;;;;;;6245136;23;20039;-82
2021/07/15 08:42:49;;;;;;;22.77;7.55;;;18.60;99.90;;;;;;6219227;23;20023;-82
2021/07/15 08:45:15;;;;;;;21.45;7.35;;;18.60;99.90;;;;;;6243987;23;20447;-82
2021/07/15 08:47:43;;;;;;;24.83;8.45;;;18.70;99.90;;;;;;6256124;23;20459;-82
2021/07/15 08:50:11;;;;;;;21.33;8.15;;;18.70;99.90;;;;;;6243691;23;20012;-82
2021/07/15 08:52:37;;;;;;;24.30;8.65;;;18.70;99.90;;;;;;6244453;23;20023;-83
2021/07/15 08:57:31;;;;;;;28.20;8.77;;;18.80;99.90;;;;;;6253569;22;20019;-82
2021/07/15 08:59:58;;;;;;;26.92;9.05;;;18.70;99.90;;;;;;6244080;23;20019;-83
2021/07/15 09:02:24;;;;;;;44.10;10.38;;;18.70;99.90;;;;;;6219353;23;20165;-82
2021/07/15 09:04:53;;;;;;;35.80;10.48;;;18.60;99.90;;;;;;6245380;23;20039;-83
2021/07/15 09:07:19;;;;;;;34.58;10.65;;;18.50;99.90;;;;;;6254744;23;20515;-83
2021/07/15 09:09:46;;;;;;;34.03;10.52;;;18.30;99.90;;;;;;6256896;23;20455;-82
2021/07/15 09:12:16;;;;;;;42.33;10.70;;;18.40;99.90;;;;;;6221389;23;20023;-84
2021/07/15 09:14:48;;;;;;;31.95;8.95;;;18.30;99.90;;;;;;6259652;22;20060;-82
2021/07/15 09:17:15;;;;;;;27.35;9.18;;;18.30;99.90;;;;;;6247268;23;20503;-83
2021/07/15 09:19:42;;;;;;;33.03;9.07;;;18.20;99.90;;;;;;6251767;23;20075;-82
2021/07/15 09:22:13;;;;;;;42.80;9.95;;;18.20;99.90;;;;;;6271838;22;20055;-80
2021/07/15 09:24:42;;;;;;;37.58;9.68;;;18.20;99.90;;;;;;6231727;23;20012;-83
2021/07/15 09:27:25;;;;;;;35.40;10.45;;;18.20;99.90;;;;;;6255216;23;20008;-83
2021/07/15 09:30:14;;;;;;;35.15;10.20;;;18.10;99.90;;;;;;6242850;23;20111;-84
2021/07/15 09:32:57;;;;;;;34.22;10.75;;;18.00;99.90;;;;;;6242425;23;20388;-83
2021/07/15 09:35:31;;;;;;;32.17;10.40;;;18.00;99.90;;;;;;6244424;23;20012;-83
2021/07/15 09:38:09;;;;;;;;;;;18.00;99.90;;;;;;6243860;23;20020;-81
2021/07/15 09:40:46;;;;;;;26.48;9.20;;;18.00;99.90;;;;;;6244332;23;19987;-84
2021/07/15 09:43:37;;;;;;;34.47;10.82;;;18.00;99.90;;;;;;6218984;23;20091;-83
2021/07/15 09:46:13;;;;;;;39.17;11.75;;;18.00;99.90;;;;;;6245695;23;20016;-83
2021/07/15 09:48:44;;;;;;;28.17;10.02;;;18.10;99.90;;;;;;6217338;23;20344;-81
2021/07/15 09:51:13;;;;;;;29.33;10.15;;;18.10;99.90;;;;;;6245036;23;20016;-84
2021/07/15 09:53:41;;;;;;;33.67;10.85;;;18.20;99.90;;;;;;6246797;22;20101;-81
2021/07/15 09:56:12;;;;;;;37.60;11.43;;;18.30;99.90;;;;;;6246201;23;20015;-83
2021/07/15 09:58:47;;;;;;;31.73;10.73;;;18.20;99.90;;;;;;6245810;23;20348;-84
2021/07/15 10:01:17;;;;;;;32.05;9.77;;;18.20;99.90;;;;;;6254317;23;20011;-82
2021/07/15 10:03:47;;;;;;;36.42;10.65;;;18.30;99.90;;;;;;6250599;23;20019;-86
2021/07/15 10:06:14;;;;;;;31.02;9.50;;;18.20;99.90;;;;;;6228778;23;20444;-86
2021/07/15 10:08:42;;;;;;;34.53;10.93;;;18.30;99.90;;;;;;6243438;23;20074;-85
2021/07/15 10:11:21;;;;;;;42.55;10.85;;;18.20;99.90;;;;;;6218089;23;20012;-85
2021/07/15 10:14:08;;;;;;;32.08;10.73;;;18.20;99.90;;;;;;6243632;23;20066;-85
2021/07/15 10:16:36;;;;;;;42.20;11.02;;;18.20;99.90;;;;;;6217581;23;20035;-84
2021/07/15 10:19:06;;;;;;;40.53;10.45;;;18.20;99.90;;;;;;6244986;22;20498;-85
2021/07/15 10:21:36;;;;;;;35.15;10.93;;;18.20;99.90;;;;;;6252871;23;20012;-83
2021/07/15 10:24:32;;;;;;;30.02;9.45;;;18.20;99.90;;;;;;6236936;23;20081;-85
2021/07/15 10:27:06;;;;;;;39.05;10.27;;;18.20;99.90;;;;;;6254899;23;20436;-85
2021/07/15 10:29:33;;;;;;;32.65;10.68;;;18.20;99.90;;;;;;6217570;23;20099;-84
2021/07/15 10:32:00;;;;;;;37.08;11.20;;;18.20;99.90;;;;;;6242858;23;20044;-84
2021/07/15 10:34:26;;;;;;;27.33;10.43;;;18.30;99.90;;;;;;6243329;23;20089;-85
2021/07/15 10:36:57;;;;;;;32.30;10.13;;;18.30;99.90;;;;;;6254131;23;20008;-84
2021/07/15 10:39:26;;;;;;;26.65;9.40;;;18.40;99.90;;;;;;6253971;23;20062;-84
2021/07/15 10:41:54;;;;;;;32.45;9.90;;;18.40;99.90;;;;;;6254432;23;20074;-83
2021/07/15 10:44:20;;;;;;;30.08;10.38;;;18.40;99.90;;;;;;6247871;23;20049;-84
2021/07/15 10:46:47;;;;;;;33.65;10.27;;;18.50;99.90;;;;;;6243125;23;20040;-85
2021/07/15 10:49:14;;;;;;;24.88;8.75;;;18.50;99.90;;;;;;6254626;23;20436;-85
2021/07/15 10:51:44;;;;;;;28.55;10.70;;;18.60;99.90;;;;;;6255632;22;20095;-82
2021/07/15 10:54:09;;;;;;;30.35;11.13;;;18.70;99.90;;;;;;6243685;23;20035;-82
2021/07/15 10:56:36;;;;;;;26.50;9.27;;;18.80;99.90;;;;;;6252614;23;20306;-83
2021/07/15 10:59:04;;;;;;;15.57;7.78;;;18.90;99.90;;;;;;6217202;23;20023;-83
2021/07/15 11:01:38;;;;;;;34.55;11.18;;;19.00;99.90;;;;;;6244566;22;20073;-82
2021/07/15 11:04:16;;;;;;;31.88;10.20;;;18.90;99.90;;;;;;6244950;22;20040;-81
2021/07/15 11:06:47;;;;;;;26.83;10.63;;;18.90;99.90;;;;;;6244601;23;20463;-83
2021/07/15 11:09:25;;;;;;;38.03;11.75;;;18.90;99.90;;;;;;6245115;22;20008;-83
2021/07/15 11:11:52;;;;;;;35.22;11.57;;;18.80;99.90;;;;;;6243481;23;20074;-83
2021/07/15 11:15:11;;;;;;;40.00;12.82;;;18.80;99.90;;;;;;6256145;22;20012;-83
2021/07/15 11:17:42;;;;;;;28.73;10.30;;;18.80;99.90;;;;;;6243345;23;20012;-81
2021/07/15 11:20:10;;;;;;;31.60;9.85;;;18.80;99.90;;;;;;6256728;23;20016;-82
2021/07/15 11:22:52;;;;;;;25.70;9.65;;;18.70;99.90;;;;;;6255167;23;20022;-82
2021/07/15 11:25:44;;;;;;;28.05;9.43;;;18.70;99.90;;;;;;6243591;23;20013;-82
2021/07/15 11:28:09;;;;;;;25.40;9.73;;;18.70;99.90;;;;;;6244307;23;20394;-81
2021/07/15 11:30:35;;;;;;;31.02;10.77;;;18.60;99.90;;;;;;6242797;23;20085;-82
2021/07/15 11:33:19;;;;;;;23.05;8.48;;;18.80;99.90;;;;;;6254379;23;20012;-81
2021/07/15 11:36:10;;;;;;;25.90;9.23;;;18.70;99.90;;;;;;6255539;23;20312;-81
2021/07/15 11:38:39;;;;;;;28.15;9.93;;;18.60;99.90;;;;;;6243332;23;20470;-80
2021/07/15 11:41:07;;;;;;;37.85;11.35;;;18.60;99.90;;;;;;6250394;23;20447;-84
2021/07/15 11:43:35;;;;;;;28.58;9.98;;;18.60;99.90;;;;;;6253899;22;20012;-83
2021/07/15 11:46:05;;;;;;;22.25;8.85;;;18.50;99.90;;;;;;6254833;23;20012;-81
2021/07/15 11:48:50;;;;;;;29.55;10.27;;;18.40;99.90;;;;;;6255372;22;20017;-82
2021/07/15 11:51:19;;;;;;;24.65;10.38;;;18.40;99.90;;;;;;6243715;23;20508;-81
2021/07/15 11:54:14;;;;;;;33.83;10.38;;;18.40;99.90;;;;;;6256078;23;20031;-82
2021/07/15 11:56:41;;;;;;;29.77;10.60;;;18.30;99.90;;;;;;6256437;23;20019;-83
2021/07/15 11:59:09;;;;;;;30.17;11.23;;;18.40;99.90;;;;;;6244935;22;20082;-83
2021/07/15 12:01:36;;;;;;;34.00;11.27;;;18.50;99.90;;;;;;6254563;22;20070;-82
2021/07/15 12:04:02;;;;;;;29.55;11.10;;;18.50;99.90;;;;;;6246072;22;20055;-82
2021/07/15 12:06:29;;;;;;;35.95;11.23;;;18.50;99.90;;;;;;6256076;23;20012;-80
2021/07/15 12:09:02;;;;;;;24.60;10.10;;;18.60;99.90;;;;;;6244442;23;20013;-86
2021/07/15 12:11:28;;;;;;;19.70;8.60;;;18.50;99.90;;;;;;6242339;23;20035;-81
2021/07/15 12:13:56;;;;;;;24.83;10.32;;;18.50;99.90;;;;;;6245573;22;20050;-84
2021/07/15 12:16:23;;;;;;;24.05;9.95;;;18.60;99.90;;;;;;6253228;23;20005;-85
2021/07/15 12:18:51;;;;;;;29.60;10.20;;;18.60;99.90;;;;;;6219210;23;20792;-83
2021/07/15 12:21:21;;;;;;;23.17;10.63;;;18.60;99.90;;;;;;6244435;23;20070;-84
2021/07/15 12:23:50;;;;;;;32.38;10.52;;;18.60;99.90;;;;;;6254577;23;20012;-86
2021/07/15 12:26:18;;;;;;;28.52;9.82;;;18.60;99.90;;;;;;6244875;23;20044;-83
2021/07/15 12:28:48;;;;;;;21.52;7.93;;;18.60;99.90;;;;;;6217451;23;20479;-84
2021/07/15 12:31:19;;;;;;;18.95;7.03;;;18.50;99.90;;;;;;6243970;23;20015;-84
2021/07/15 12:33:50;;;;;;;16.70;7.13;;;18.50;99.90;;;;;;6255194;23;20050;-84
2021/07/15 12:36:21;;;;;;;19.42;8.05;;;18.40;99.90;;;;;;6244576;23;20043;-84
2021/07/15 12:38:53;;;;;;;21.83;7.80;;;18.40;99.90;;;;;;6244375;23;20058;-82
2021/07/15 12:41:22;;;;;;;20.25;8.18;;;18.40;99.90;;;;;;6245089;23;20012;-82
2021/07/15 12:43:51;;;;;;;24.42;8.60;;;18.40;99.90;;;;;;6253158;23;20474;-80
2021/07/15 12:46:20;;;;;;;20.50;8.65;;;18.30;99.90;;;;;;6255178;23;20012;-82
2021/07/15 12:48:49;;;;;;;26.92;9.38;;;18.40;99.90;;;;;;6256991;23;20026;-82